createdAt,value
2023-01-13T00:01:36.187Z,5.57
2023-01-13T00:04:05.524Z,6.00
2023-01-13T00:06:34.566Z,5.77
2023-01-13T00:09:03.522Z,5.67
2023-01-13T00:11:32.598Z,6.07
2023-01-13T00:14:02.926Z,4.97
2023-01-13T00:16:32.017Z,4.87
2023-01-13T00:19:01.205Z,5.00
2023-01-13T00:21:29.934Z,4.80
2023-01-13T00:23:58.988Z,4.60
2023-01-13T00:26:30.714Z,4.50
2023-01-13T00:29:00.862Z,4.60
2023-01-13T00:31:32.067Z,4.67
2023-01-13T00:34:02.463Z,4.47
2023-01-13T00:36:32.233Z,3.87
2023-01-13T00:39:01.377Z,3.87
2023-01-13T00:41:50.487Z,4.60
2023-01-13T00:44:18.438Z,3.90
2023-01-13T00:46:48.948Z,3.80
2023-01-13T00:49:18.118Z,3.70
2023-01-13T00:51:47.321Z,3.50
2023-01-13T00:54:17.368Z,3.90
2023-01-13T00:56:46.582Z,4.07
2023-01-13T00:59:16.153Z,3.80
2023-01-13T01:01:45.381Z,3.87
2023-01-13T01:04:16.272Z,3.37
2023-01-13T01:06:45.332Z,3.53
2023-01-13T01:09:15.882Z,4.00
2023-01-13T01:11:45.328Z,4.20
2023-01-13T01:14:15.177Z,4.10
2023-01-13T01:16:44.309Z,3.30
2023-01-13T01:19:13.062Z,3.97
2023-01-13T01:21:44.036Z,4.10
2023-01-13T01:24:13.073Z,4.00
2023-01-13T01:26:42.369Z,3.53
2023-01-13T01:29:15.207Z,3.53
2023-01-13T01:31:44.831Z,3.77
2023-01-13T01:34:13.945Z,3.17
2023-01-13T01:36:44.430Z,3.47
2023-01-13T01:39:13.487Z,3.70
2023-01-13T01:42:03.025Z,3.27
2023-01-13T01:44:55.365Z,3.80
2023-01-13T01:47:26.336Z,3.23
2023-01-13T01:49:57.057Z,3.50
2023-01-13T01:52:32.760Z,3.30
2023-01-13T01:55:06.740Z,3.43
2023-01-13T01:57:42.459Z,3.43
2023-01-13T02:00:12.958Z,3.70
2023-01-13T02:02:45.511Z,3.50
2023-01-13T02:05:15.038Z,3.40
2023-01-13T02:07:48.868Z,3.40
2023-01-13T02:10:20.760Z,3.27
2023-01-13T02:12:49.370Z,3.10
2023-01-13T02:15:21.215Z,3.33
2023-01-13T02:18:08.178Z,3.37
2023-01-13T02:21:05.463Z,3.20
2023-01-13T02:24:24.252Z,3.47
2023-01-13T02:27:36.856Z,3.00
2023-01-13T02:30:33.838Z,3.37
2023-01-13T02:33:18.343Z,3.40
2023-01-13T02:35:52.836Z,2.97
2023-01-13T02:38:26.608Z,3.17
2023-01-13T02:41:21.628Z,3.13
2023-01-13T02:44:10.462Z,3.30
2023-01-13T02:46:51.213Z,3.43
2023-01-13T02:49:27.280Z,2.90
2023-01-13T02:52:01.899Z,3.37
2023-01-13T02:54:33.133Z,3.30
2023-01-13T02:57:04.154Z,3.23
2023-01-13T02:59:33.712Z,2.80
2023-01-13T03:02:05.821Z,2.93
2023-01-13T03:05:02.517Z,3.23
2023-01-13T03:08:02.465Z,2.77
2023-01-13T03:10:44.352Z,3.07
2023-01-13T03:13:40.579Z,3.07
2023-01-13T03:16:20.251Z,2.80
2023-01-13T03:19:02.931Z,2.77
2023-01-13T03:21:40.921Z,3.00
2023-01-13T03:24:18.249Z,2.90
2023-01-13T03:26:50.439Z,2.80
2023-01-13T03:29:24.443Z,2.70
2023-01-13T03:31:59.992Z,2.60
2023-01-13T03:34:37.227Z,2.70
2023-01-13T03:37:08.245Z,2.70
2023-01-13T03:39:41.219Z,2.50
2023-01-13T03:42:15.357Z,2.57
2023-01-13T03:44:48.541Z,2.43
2023-01-13T03:47:23.478Z,2.60
2023-01-13T03:50:00.868Z,2.30
2023-01-13T03:52:33.781Z,2.30
2023-01-13T03:55:07.248Z,2.30
2023-01-13T03:57:41.008Z,2.30
2023-01-13T04:00:14.564Z,2.47
2023-01-13T04:02:51.319Z,2.50
2023-01-13T04:05:22.695Z,2.27
2023-01-13T04:07:58.175Z,2.40
2023-01-13T04:10:32.750Z,2.30
2023-01-13T04:13:05.274Z,2.10
2023-01-13T04:15:37.527Z,2.47
2023-01-13T04:18:18.184Z,1.80
2023-01-13T04:20:51.012Z,2.20
2023-01-13T04:23:21.170Z,2.13
2023-01-13T04:25:51.652Z,2.20
2023-01-13T04:28:21.164Z,2.13
2023-01-13T04:30:50.360Z,1.83
2023-01-13T04:33:20.899Z,2.13
2023-01-13T04:35:52.629Z,1.90
2023-01-13T04:38:22.846Z,1.90
2023-01-13T04:40:51.799Z,2.00
2023-01-13T04:43:20.899Z,2.17
2023-01-13T04:45:50.046Z,2.00
2023-01-13T04:48:19.152Z,2.13
2023-01-13T04:50:48.163Z,2.10
2023-01-13T04:53:18.801Z,2.40
2023-01-13T04:55:49.719Z,2.00
2023-01-13T04:58:18.695Z,2.07
2023-01-13T05:00:47.757Z,2.00
2023-01-13T05:03:16.624Z,2.50
2023-01-13T05:05:45.955Z,2.33
2023-01-13T05:08:14.889Z,2.50
2023-01-13T05:10:45.599Z,2.30
2023-01-13T05:13:31.891Z,2.37
2023-01-13T05:16:18.949Z,2.20
2023-01-13T05:18:48.033Z,2.23
2023-01-13T05:21:30.669Z,2.40
2023-01-13T05:24:16.930Z,2.50
2023-01-13T05:26:47.484Z,2.80
2023-01-13T05:29:16.585Z,2.50
2023-01-13T05:31:45.597Z,2.47
2023-01-13T05:34:14.841Z,2.63
2023-01-13T05:36:43.581Z,2.70
2023-01-13T05:39:12.702Z,2.63
2023-01-13T05:41:58.797Z,2.10
2023-01-13T05:44:29.477Z,2.40
2023-01-13T05:46:58.461Z,2.60
2023-01-13T05:49:27.551Z,2.30
2023-01-13T05:51:56.320Z,2.47
2023-01-13T05:54:25.228Z,2.13
2023-01-13T05:56:54.249Z,2.23
2023-01-13T05:59:23.331Z,2.23
2023-01-13T06:01:53.664Z,2.17
2023-01-13T06:04:22.916Z,1.97
2023-01-13T06:06:51.957Z,2.03
2023-01-13T06:09:22.714Z,1.90
2023-01-13T06:11:51.665Z,2.20
2023-01-13T06:14:21.331Z,1.87
2023-01-13T06:16:50.518Z,1.93
2023-01-13T06:19:21.258Z,1.90
2023-01-13T06:21:50.583Z,1.70
2023-01-13T06:24:19.605Z,1.80
2023-01-13T06:26:48.704Z,1.70
2023-01-13T06:29:17.944Z,1.83
2023-01-13T06:31:46.822Z,2.07
2023-01-13T06:34:16.729Z,2.60
2023-01-13T06:36:51.818Z,1.70
2023-01-13T06:39:24.427Z,1.53
2023-01-13T06:42:12.308Z,1.90
2023-01-13T06:44:41.980Z,1.93
2023-01-13T06:47:11.373Z,1.73
2023-01-13T06:49:40.163Z,1.67
2023-01-13T06:52:10.917Z,1.77
2023-01-13T06:54:39.988Z,1.67
2023-01-13T06:57:08.861Z,1.53
2023-01-13T06:59:37.901Z,2.10
2023-01-13T07:02:06.803Z,2.27
2023-01-13T07:04:35.898Z,2.23
2023-01-13T07:07:04.909Z,2.03
2023-01-13T07:09:35.603Z,2.30
2023-01-13T07:12:04.820Z,1.90
2023-01-13T07:14:51.283Z,2.47
2023-01-13T07:17:25.369Z,2.80
2023-01-13T07:19:54.712Z,2.30
2023-01-13T07:22:24.547Z,1.90
2023-01-13T07:24:55.285Z,2.07
2023-01-13T07:27:24.371Z,2.53
2023-01-13T07:29:53.150Z,2.47
2023-01-13T07:32:21.883Z,2.60
2023-01-13T07:34:50.993Z,2.40
2023-01-13T07:37:19.879Z,2.17
2023-01-13T07:39:50.367Z,2.60
2023-01-13T07:42:37.931Z,2.23
2023-01-13T07:45:09.787Z,2.03
2023-01-13T07:47:40.103Z,2.20
2023-01-13T07:50:11.031Z,2.20
2023-01-13T07:52:39.856Z,2.33
2023-01-13T07:55:09.369Z,2.40
2023-01-13T07:57:40.274Z,2.20
2023-01-13T08:00:12.842Z,2.30
2023-01-13T08:02:42.242Z,2.33
2023-01-13T08:05:11.675Z,2.17
2023-01-13T08:07:41.080Z,2.33
2023-01-13T08:10:11.133Z,1.97
2023-01-13T08:12:58.809Z,2.07
2023-01-13T08:15:29.751Z,1.67
2023-01-13T08:17:59.413Z,2.00
2023-01-13T08:20:28.386Z,2.20
2023-01-13T08:22:58.100Z,2.10
2023-01-13T08:25:27.858Z,2.40
2023-01-13T08:28:00.175Z,2.03
2023-01-13T08:30:30.529Z,2.13
2023-01-13T08:32:59.666Z,1.90
2023-01-13T08:35:28.710Z,1.97
2023-01-13T08:37:58.691Z,1.97
2023-01-13T08:40:27.881Z,2.07
2023-01-13T08:42:58.796Z,1.70
2023-01-13T08:45:28.228Z,1.60
2023-01-13T08:47:57.378Z,1.60
2023-01-13T08:50:26.405Z,1.90
2023-01-13T08:52:55.302Z,2.30
2023-01-13T08:55:24.636Z,2.07
2023-01-13T08:58:00.505Z,1.90
2023-01-13T09:00:37.118Z,2.20
2023-01-13T09:03:06.260Z,2.10
2023-01-13T09:05:37.224Z,1.70
2023-01-13T09:08:06.496Z,1.77
2023-01-13T09:10:35.753Z,1.73
2023-01-13T09:13:12.381Z,2.13
2023-01-13T09:15:45.921Z,2.37
2023-01-13T09:18:15.753Z,1.70
2023-01-13T09:20:45.063Z,1.80
2023-01-13T09:23:14.023Z,2.23
2023-01-13T09:25:42.906Z,2.00
2023-01-13T09:28:11.626Z,1.50
2023-01-13T09:30:40.693Z,2.97
2023-01-13T09:33:28.365Z,2.33
2023-01-13T09:36:01.305Z,1.90
2023-01-13T09:38:30.383Z,2.00
2023-01-13T09:40:59.452Z,2.13
2023-01-13T09:43:52.653Z,2.30
2023-01-13T09:46:43.130Z,5.93
2023-01-13T09:49:20.741Z,3.40
2023-01-13T09:51:56.415Z,2.60
2023-01-13T09:54:33.007Z,2.70
2023-01-13T09:57:02.374Z,2.60
2023-01-13T09:59:36.485Z,2.40
2023-01-13T10:02:23.694Z,2.00
2023-01-13T10:05:29.404Z,1.97
2023-01-13T10:08:04.631Z,2.00
2023-01-13T10:10:39.117Z,1.90
2023-01-13T10:13:16.270Z,2.30
2023-01-13T10:15:54.274Z,2.60
2023-01-13T10:18:27.282Z,3.13
2023-01-13T10:21:09.413Z,2.80
2023-01-13T10:23:49.359Z,4.37
2023-01-13T10:26:41.045Z,3.67
2023-01-13T10:29:21.867Z,3.20
2023-01-13T10:31:50.961Z,2.50
2023-01-13T10:34:20.863Z,2.57
2023-01-13T10:37:06.678Z,2.60
2023-01-13T10:39:43.440Z,2.60
2023-01-13T10:42:15.848Z,2.30
2023-01-13T10:44:53.585Z,2.40
2023-01-13T10:47:26.739Z,2.37
2023-01-13T10:50:09.285Z,2.20
2023-01-13T10:52:43.112Z,2.87
2023-01-13T10:55:27.402Z,2.00
2023-01-13T10:57:56.637Z,2.23
2023-01-13T11:00:31.474Z,2.73
2023-01-13T11:03:19.204Z,2.37
2023-01-13T11:05:56.074Z,2.43
2023-01-13T11:08:28.512Z,2.53
2023-01-13T11:10:59.273Z,2.20
2023-01-13T11:13:34.706Z,2.77
2023-01-13T11:16:09.095Z,2.13
2023-01-13T11:18:51.994Z,2.47
2023-01-13T11:21:26.221Z,2.33
2023-01-13T11:24:05.619Z,2.83
2023-01-13T11:26:44.336Z,3.33
2023-01-13T11:29:19.603Z,2.37
2023-01-13T11:31:53.091Z,2.33
2023-01-13T11:34:29.525Z,2.20
2023-01-13T11:37:01.412Z,2.17
2023-01-13T11:39:46.882Z,2.00
2023-01-13T11:42:25.313Z,1.87
2023-01-13T11:45:05.248Z,1.77
2023-01-13T11:47:35.621Z,2.23
2023-01-13T11:50:05.476Z,2.53
2023-01-13T11:52:58.418Z,2.80
2023-01-13T11:55:41.969Z,2.33
2023-01-13T11:58:42.072Z,3.10
2023-01-13T12:01:36.829Z,3.10
2023-01-13T12:04:22.668Z,3.63
2023-01-13T12:06:57.625Z,3.50
2023-01-13T12:09:46.331Z,7.57
2023-01-13T12:12:27.753Z,3.10
2023-01-13T12:15:35.907Z,2.80
2023-01-13T12:18:26.468Z,2.50
2023-01-13T12:21:10.873Z,2.57
2023-01-13T12:23:44.873Z,2.40
2023-01-13T12:26:16.779Z,2.50
2023-01-13T12:28:52.951Z,2.10
2023-01-13T12:31:23.338Z,2.13
2023-01-13T12:34:10.137Z,2.40
2023-01-13T12:36:53.151Z,2.63
2023-01-13T12:39:31.313Z,3.83
2023-01-13T12:42:23.171Z,3.80
2023-01-13T12:45:24.280Z,2.73
2023-01-13T12:47:53.420Z,3.47
2023-01-13T12:50:40.873Z,3.00
2023-01-13T12:53:46.685Z,2.90
2023-01-13T12:56:44.663Z,3.30
2023-01-13T12:59:37.515Z,3.40
2023-01-13T13:02:36.800Z,3.77
2023-01-13T13:05:37.849Z,10.37
2023-01-13T13:08:14.635Z,16.60
2023-01-13T13:10:49.309Z,2.80
2023-01-13T13:13:39.950Z,5.53
2023-01-13T13:16:44.709Z,2.40
2023-01-13T13:19:46.785Z,1.90
2023-01-13T13:22:43.265Z,2.33
2023-01-13T13:25:26.405Z,2.00
2023-01-13T13:28:17.331Z,2.53
2023-01-13T13:30:54.943Z,2.20
2023-01-13T13:33:39.139Z,3.33
2023-01-13T13:36:22.178Z,3.70
2023-01-13T13:39:24.497Z,2.90
2023-01-13T13:42:18.307Z,2.00
2023-01-13T13:45:07.511Z,3.27
2023-01-13T13:47:38.557Z,5.00
2023-01-13T13:50:10.889Z,4.00
2023-01-13T13:52:45.854Z,4.73
2023-01-13T13:55:20.668Z,5.00
2023-01-13T13:57:51.360Z,3.53
2023-01-13T14:00:27.020Z,3.57
2023-01-13T14:03:00.811Z,3.20
2023-01-13T14:05:31.255Z,3.00
2023-01-13T14:08:03.248Z,6.90
2023-01-13T14:10:34.233Z,3.90
2023-01-13T14:13:04.127Z,3.60
2023-01-13T14:15:36.135Z,3.57
2023-01-13T14:18:08.372Z,4.47
2023-01-13T14:20:37.851Z,5.60
2023-01-13T14:23:08.485Z,10.43
2023-01-13T14:25:40.138Z,6.77
2023-01-13T14:28:23.959Z,14.67
2023-01-13T14:30:53.716Z,5.40
2023-01-13T14:33:28.180Z,12.20
2023-01-13T14:36:14.865Z,8.73
2023-01-13T14:38:46.906Z,5.80
2023-01-13T14:41:25.204Z,4.50
2023-01-13T14:43:58.578Z,5.57
2023-01-13T14:46:37.731Z,7.03
2023-01-13T14:49:07.015Z,6.90
2023-01-13T14:51:35.764Z,5.13
2023-01-13T14:54:27.245Z,9.03
2023-01-13T14:57:13.496Z,7.20
2023-01-13T14:59:44.430Z,7.27
2023-01-13T15:02:47.304Z,5.70
2023-01-13T15:05:34.988Z,3.43
2023-01-13T15:08:11.354Z,16.20
2023-01-13T15:10:49.779Z,5.10
2023-01-13T15:13:28.423Z,6.40
2023-01-13T15:16:00.272Z,2.97
2023-01-13T15:18:29.456Z,2.23
2023-01-13T15:20:58.481Z,2.00
2023-01-13T15:23:27.575Z,2.20
2023-01-13T15:26:00.858Z,2.67
2023-01-13T15:28:32.048Z,3.17
2023-01-13T15:31:03.809Z,3.07
2023-01-13T15:33:32.921Z,4.40
2023-01-13T15:36:02.846Z,5.20
2023-01-13T15:38:31.595Z,10.23
2023-01-13T15:41:02.167Z,4.13
2023-01-13T15:43:48.485Z,9.67
2023-01-13T15:46:37.168Z,14.00
2023-01-13T15:49:13.275Z,5.63
2023-01-13T15:51:42.362Z,3.73
2023-01-13T15:54:12.072Z,3.70
2023-01-13T15:56:43.342Z,4.07
2023-01-13T15:59:18.104Z,3.27
2023-01-13T16:01:47.633Z,3.37
2023-01-13T16:04:16.883Z,3.70
2023-01-13T16:06:47.614Z,3.63
2023-01-13T16:09:17.033Z,3.73
2023-01-13T16:11:47.539Z,3.83
2023-01-13T16:14:16.488Z,2.83
2023-01-13T16:16:45.241Z,2.30
2023-01-13T16:19:14.579Z,3.60
2023-01-13T16:21:43.762Z,2.20
2023-01-13T16:24:12.682Z,3.50
2023-01-13T16:26:41.836Z,3.00
2023-01-13T16:29:13.348Z,2.80
2023-01-13T16:31:42.464Z,3.00
2023-01-13T16:34:11.609Z,2.10
2023-01-13T16:36:40.763Z,2.57
2023-01-13T16:39:21.931Z,2.80
2023-01-13T16:41:51.002Z,3.53
2023-01-13T16:44:21.663Z,3.10
2023-01-13T16:46:50.916Z,2.90
2023-01-13T16:49:19.687Z,3.13
2023-01-13T16:51:48.506Z,2.77
2023-01-13T16:54:17.598Z,2.70
2023-01-13T16:56:46.508Z,2.90
2023-01-13T16:59:16.119Z,3.07
2023-01-13T17:01:46.924Z,2.80
2023-01-13T17:04:18.003Z,3.30
2023-01-13T17:06:52.767Z,3.70
2023-01-13T17:09:23.333Z,3.90
2023-01-13T17:11:52.714Z,3.70
2023-01-13T17:14:23.554Z,5.13
2023-01-13T17:16:58.697Z,4.17
2023-01-13T17:19:27.933Z,4.43
2023-01-13T17:21:56.960Z,4.20
2023-01-13T17:24:26.188Z,4.10
2023-01-13T17:26:55.315Z,4.77
2023-01-13T17:29:25.831Z,5.13
2023-01-13T17:31:56.623Z,4.00
2023-01-13T17:34:25.919Z,4.60
2023-01-13T17:36:55.197Z,4.63
2023-01-13T17:39:25.734Z,4.87
2023-01-13T17:41:56.011Z,4.40
2023-01-13T17:44:25.096Z,5.00
2023-01-13T17:46:55.772Z,4.57
2023-01-13T17:49:25.627Z,4.60
2023-01-13T17:51:54.991Z,5.80
2023-01-13T17:54:24.183Z,6.27
2023-01-13T17:56:53.477Z,6.90
2023-01-13T17:59:24.311Z,6.10
2023-01-13T18:01:53.808Z,5.80
2023-01-13T18:04:28.103Z,6.77
2023-01-13T18:06:58.155Z,6.70
2023-01-13T18:09:27.411Z,5.33
2023-01-13T18:11:56.573Z,4.30
2023-01-13T18:14:26.086Z,4.77
2023-01-13T18:16:55.384Z,5.07
2023-01-13T18:19:43.269Z,4.83
2023-01-13T18:22:31.468Z,4.17
2023-01-13T18:25:18.006Z,5.33
2023-01-13T18:27:46.924Z,5.23
2023-01-13T18:30:16.174Z,5.10
2023-01-13T18:32:45.127Z,9.30
2023-01-13T18:35:15.412Z,5.60
2023-01-13T18:37:44.424Z,5.13
2023-01-13T18:40:14.309Z,4.67
2023-01-13T18:42:51.460Z,5.23
2023-01-13T18:45:21.767Z,4.47
2023-01-13T18:47:50.877Z,4.50
2023-01-13T18:50:22.388Z,5.60
2023-01-13T18:52:51.709Z,6.47
2023-01-13T18:55:21.390Z,6.03
2023-01-13T18:57:51.352Z,5.93
2023-01-13T19:00:22.652Z,5.23
2023-01-13T19:05:38.380Z,6.80
2023-01-13T19:08:07.512Z,10.07
2023-01-13T19:10:37.632Z,8.00
2023-01-13T19:13:09.312Z,6.77
2023-01-13T19:15:38.737Z,5.17
2023-01-13T19:18:07.903Z,4.60
2023-01-13T19:20:39.506Z,5.13
2023-01-13T19:23:09.101Z,5.00
2023-01-13T19:25:39.475Z,4.30
2023-01-13T19:28:09.280Z,4.53
2023-01-13T19:30:38.667Z,4.33
2023-01-13T19:33:07.953Z,4.47
2023-01-13T19:35:40.447Z,4.57
2023-01-13T19:38:09.756Z,4.10
2023-01-13T19:40:39.632Z,4.57
2023-01-13T19:43:27.227Z,4.70
2023-01-13T19:45:56.963Z,4.27
2023-01-13T19:48:26.666Z,4.53
2023-01-13T19:50:58.091Z,4.83
2023-01-13T19:53:27.392Z,5.10
2023-01-13T19:55:56.793Z,5.50
2023-01-13T19:58:26.634Z,4.50
2023-01-13T20:00:56.374Z,4.30
2023-01-13T20:03:26.968Z,4.90
2023-01-13T20:06:05.930Z,4.30
2023-01-13T20:08:35.268Z,4.00
2023-01-13T20:11:17.997Z,3.87
2023-01-13T20:13:47.257Z,3.80
2023-01-13T20:16:16.571Z,3.90
2023-01-13T20:18:49.614Z,3.37
2023-01-13T20:21:20.894Z,2.83
2023-01-13T20:23:51.613Z,3.13
2023-01-13T20:26:21.663Z,2.93
2023-01-13T20:28:50.937Z,2.40
2023-01-13T20:31:19.896Z,2.30
2023-01-13T20:33:50.610Z,2.60
2023-01-13T20:36:27.932Z,2.63
2023-01-13T20:39:00.650Z,2.63
2023-01-13T20:41:47.591Z,2.70
2023-01-13T20:44:16.707Z,2.20
2023-01-13T20:46:46.353Z,2.30
2023-01-13T20:49:16.604Z,2.47
2023-01-13T20:51:47.372Z,2.70
2023-01-13T20:54:16.707Z,2.43
2023-01-13T20:56:45.821Z,2.50
2023-01-13T20:59:15.072Z,2.77
2023-01-13T21:01:44.426Z,2.23
2023-01-13T21:04:13.752Z,2.00
2023-01-13T21:06:48.237Z,2.37
2023-01-13T21:09:17.453Z,2.37
2023-01-13T21:12:03.955Z,2.10
2023-01-13T21:14:50.339Z,2.10
2023-01-13T21:17:39.896Z,2.47
2023-01-13T21:20:09.897Z,2.37
2023-01-13T21:22:41.056Z,1.93
2023-01-13T21:25:12.137Z,2.00
2023-01-13T21:27:41.851Z,2.17
2023-01-13T21:30:14.993Z,2.53
2023-01-13T21:32:45.602Z,1.97
2023-01-13T21:35:15.956Z,1.97
2023-01-13T21:37:46.901Z,2.07
2023-01-13T21:40:16.637Z,1.67
2023-01-13T21:43:03.233Z,2.30
2023-01-13T21:45:49.447Z,2.27
2023-01-13T21:48:18.667Z,2.03
2023-01-13T21:50:47.836Z,2.33
2023-01-13T21:53:18.697Z,1.93
2023-01-13T21:55:52.722Z,1.87
2023-01-13T21:58:21.929Z,1.90
2023-01-13T22:00:51.259Z,1.97
2023-01-13T22:03:20.507Z,2.27
2023-01-13T22:05:56.045Z,2.00
2023-01-13T22:08:27.224Z,1.60
2023-01-13T22:11:00.158Z,1.50
2023-01-13T22:13:48.181Z,1.90
2023-01-13T22:16:17.483Z,2.03
2023-01-13T22:18:46.465Z,1.80
2023-01-13T22:21:15.648Z,1.43
2023-01-13T22:23:47.015Z,1.70
2023-01-13T22:26:15.947Z,1.80
2023-01-13T22:28:44.692Z,1.80
2023-01-13T22:31:15.675Z,1.30
2023-01-13T22:33:47.034Z,1.80
2023-01-13T22:36:16.695Z,1.73
2023-01-13T22:38:47.391Z,1.90
2023-01-13T22:41:16.455Z,1.60
2023-01-13T22:43:45.185Z,2.10
2023-01-13T22:46:15.037Z,1.93
2023-01-13T22:48:45.938Z,1.90
2023-01-13T22:51:16.645Z,1.90
2023-01-13T22:53:47.297Z,2.20
2023-01-13T22:56:18.832Z,2.27
2023-01-13T22:58:49.078Z,2.17
2023-01-13T23:01:18.990Z,2.33
2023-01-13T23:03:48.919Z,2.40
2023-01-13T23:06:19.210Z,2.17
2023-01-13T23:08:50.595Z,2.30
2023-01-13T23:11:21.579Z,2.27
2023-01-13T23:13:50.662Z,2.37
2023-01-13T23:16:22.335Z,2.23
2023-01-13T23:18:51.469Z,1.90
2023-01-13T23:21:22.886Z,2.13
2023-01-13T23:23:54.068Z,2.20
2023-01-13T23:26:23.697Z,2.27
2023-01-13T23:28:52.922Z,2.10
2023-01-13T23:31:23.660Z,2.20
2023-01-13T23:33:52.763Z,2.10
2023-01-13T23:36:23.528Z,2.43
2023-01-13T23:38:54.838Z,2.63
2023-01-13T23:41:25.609Z,2.83
2023-01-13T23:43:55.876Z,2.43
2023-01-13T23:46:25.272Z,2.17
2023-01-13T23:48:55.435Z,2.03
2023-01-13T23:51:26.171Z,2.27
2023-01-13T23:53:57.011Z,2.50
2023-01-13T23:56:28.619Z,2.23
2023-01-13T23:58:58.253Z,1.73
